sensor_id;sensor_type;location;lat;lon;timestamp;temperature;humidity
4697;DHT22;2362;50.780;0.292;2023-03-12T00:02:00;7.40;99.90
4697;DHT22;2362;50.780;0.292;2023-03-12T00:04:26;7.30;99.90
4697;DHT22;2362;50.780;0.292;2023-03-12T00:06:52;7.30;99.90
4697;DHT22;2362;50.780;0.292;2023-03-12T00:09:18;7.30;99.90
4697;DHT22;2362;50.780;0.292;2023-03-12T00:11:43;7.30;99.90
4697;DHT22;2362;50.780;0.292;2023-03-12T00:14:09;7.40;99.90
4697;DHT22;2362;50.780;0.292;2023-03-12T00:16:34;7.40;99.90
4697;DHT22;2362;50.780;0.292;2023-03-12T00:19:00;7.50;99.90
4697;DHT22;2362;50.780;0.292;2023-03-12T00:21:26;7.50;99.90
4697;DHT22;2362;50.780;0.292;2023-03-12T00:23:52;7.50;99.90
4697;DHT22;2362;50.780;0.292;2023-03-12T00:26:19;7.50;99.90
4697;DHT22;2362;50.780;0.292;2023-03-12T00:28:47;7.60;99.90
4697;DHT22;2362;50.780;0.292;2023-03-12T00:31:23;7.60;99.90
4697;DHT22;2362;50.780;0.292;2023-03-12T00:33:51;7.60;99.90
4697;DHT22;2362;50.780;0.292;2023-03-12T00:36:19;7.60;99.90
4697;DHT22;2362;50.780;0.292;2023-03-12T00:38:45;7.60;99.90
4697;DHT22;2362;50.780;0.292;2023-03-12T00:41:11;7.50;99.90
4697;DHT22;2362;50.780;0.292;2023-03-12T00:43:37;7.60;99.90
4697;DHT22;2362;50.780;0.292;2023-03-12T00:46:03;7.80;99.90
4697;DHT22;2362;50.780;0.292;2023-03-12T00:48:28;8.00;99.90
4697;DHT22;2362;50.780;0.292;2023-03-12T00:50:54;8.20;99.90
4697;DHT22;2362;50.780;0.292;2023-03-12T00:53:20;8.30;99.90
4697;DHT22;2362;50.780;0.292;2023-03-12T00:55:45;8.20;99.90
4697;DHT22;2362;50.780;0.292;2023-03-12T00:58:11;8.30;99.90
4697;DHT22;2362;50.780;0.292;2023-03-12T01:00:37;8.40;99.90
4697;DHT22;2362;50.780;0.292;2023-03-12T01:03:03;8.30;99.90
4697;DHT22;2362;50.780;0.292;2023-03-12T01:05:28;8.30;99.90
4697;DHT22;2362;50.780;0.292;2023-03-12T01:07:54;8.30;99.90
4697;DHT22;2362;50.780;0.292;2023-03-12T01:10:20;8.40;99.90
4697;DHT22;2362;50.780;0.292;2023-03-12T01:12:46;8.40;99.90
4697;DHT22;2362;50.780;0.292;2023-03-12T01:15:14;8.30;99.90
4697;DHT22;2362;50.780;0.292;2023-03-12T01:17:40;8.20;99.90
4697;DHT22;2362;50.780;0.292;2023-03-12T01:20:06;8.20;99.90
4697;DHT22;2362;50.780;0.292;2023-03-12T01:22:33;8.20;99.90
4697;DHT22;2362;50.780;0.292;2023-03-12T01:24:59;8.20;99.90
4697;DHT22;2362;50.780;0.292;2023-03-12T01:27:24;8.20;99.90
4697;DHT22;2362;50.780;0.292;2023-03-12T01:29:50;8.30;99.90
4697;DHT22;2362;50.780;0.292;2023-03-12T01:32:16;8.30;99.90
4697;DHT22;2362;50.780;0.292;2023-03-12T01:34:42;8.30;99.90
4697;DHT22;2362;50.780;0.292;2023-03-12T01:37:08;8.30;99.90
4697;DHT22;2362;50.780;0.292;2023-03-12T01:39:34;8.30;99.90
4697;DHT22;2362;50.780;0.292;2023-03-12T01:42:00;8.30;99.90
4697;DHT22;2362;50.780;0.292;2023-03-12T01:44:26;8.30;99.90
4697;DHT22;2362;50.780;0.292;2023-03-12T01:46:52;8.30;99.90
4697;DHT22;2362;50.780;0.292;2023-03-12T01:49:30;8.40;99.90
4697;DHT22;2362;50.780;0.292;2023-03-12T01:52:16;8.30;99.90
4697;DHT22;2362;50.780;0.292;2023-03-12T01:54:53;8.40;99.90
4697;DHT22;2362;50.780;0.292;2023-03-12T01:57:28;8.30;99.90
4697;DHT22;2362;50.780;0.292;2023-03-12T02:00:10;8.30;99.90
4697;DHT22;2362;50.780;0.292;2023-03-12T02:02:38;8.30;99.90
4697;DHT22;2362;50.780;0.292;2023-03-12T02:05:23;8.20;99.90
4697;DHT22;2362;50.780;0.292;2023-03-12T02:07:49;8.10;99.90
4697;DHT22;2362;50.780;0.292;2023-03-12T02:10:15;8.10;99.90
4697;DHT22;2362;50.780;0.292;2023-03-12T02:12:41;8.10;99.90
4697;DHT22;2362;50.780;0.292;2023-03-12T02:15:07;8.20;99.90
4697;DHT22;2362;50.780;0.292;2023-03-12T02:17:34;8.20;99.90
4697;DHT22;2362;50.780;0.292;2023-03-12T02:20:21;8.20;99.90
4697;DHT22;2362;50.780;0.292;2023-03-12T02:23:02;8.10;99.90
4697;DHT22;2362;50.780;0.292;2023-03-12T02:25:36;8.10;99.90
4697;DHT22;2362;50.780;0.292;2023-03-12T02:28:06;8.20;99.90
4697;DHT22;2362;50.780;0.292;2023-03-12T02:30:33;8.20;99.90
4697;DHT22;2362;50.780;0.292;2023-03-12T02:33:04;8.20;99.90
4697;DHT22;2362;50.780;0.292;2023-03-12T02:35:30;8.30;99.90
4697;DHT22;2362;50.780;0.292;2023-03-12T02:37:56;8.20;99.90
4697;DHT22;2362;50.780;0.292;2023-03-12T02:42:55;8.20;99.90
4697;DHT22;2362;50.780;0.292;2023-03-12T02:45:21;8.30;99.90
4697;DHT22;2362;50.780;0.292;2023-03-12T02:47:49;8.20;99.90
4697;DHT22;2362;50.780;0.292;2023-03-12T02:50:14;8.20;99.90
4697;DHT22;2362;50.780;0.292;2023-03-12T02:52:40;8.20;99.90
4697;DHT22;2362;50.780;0.292;2023-03-12T02:55:07;8.20;99.90
4697;DHT22;2362;50.780;0.292;2023-03-12T02:57:33;8.20;99.90
4697;DHT22;2362;50.780;0.292;2023-03-12T03:00:06;8.10;99.90
4697;DHT22;2362;50.780;0.292;2023-03-12T03:02:36;8.20;99.90
4697;DHT22;2362;50.780;0.292;2023-03-12T03:05:01;8.10;99.90
4697;DHT22;2362;50.780;0.292;2023-03-12T03:07:27;8.10;99.90
4697;DHT22;2362;50.780;0.292;2023-03-12T03:09:53;8.10;99.90
4697;DHT22;2362;50.780;0.292;2023-03-12T03:12:18;8.10;99.90
4697;DHT22;2362;50.780;0.292;2023-03-12T03:14:44;8.10;99.90
4697;DHT22;2362;50.780;0.292;2023-03-12T03:17:35;8.00;99.90
4697;DHT22;2362;50.780;0.292;2023-03-12T03:20:01;7.90;99.90
4697;DHT22;2362;50.780;0.292;2023-03-12T03:22:28;8.00;99.90
4697;DHT22;2362;50.780;0.292;2023-03-12T03:24:54;8.00;99.90
4697;DHT22;2362;50.780;0.292;2023-03-12T03:27:20;8.00;99.90
4697;DHT22;2362;50.780;0.292;2023-03-12T03:29:45;8.00;99.90
4697;DHT22;2362;50.780;0.292;2023-03-12T03:32:12;8.10;99.90
4697;DHT22;2362;50.780;0.292;2023-03-12T03:34:37;8.00;99.90
4697;DHT22;2362;50.780;0.292;2023-03-12T03:37:03;7.90;99.90
4697;DHT22;2362;50.780;0.292;2023-03-12T03:39:29;8.00;99.90
4697;DHT22;2362;50.780;0.292;2023-03-12T03:41:55;8.00;99.90
4697;DHT22;2362;50.780;0.292;2023-03-12T03:44:21;8.00;99.90
4697;DHT22;2362;50.780;0.292;2023-03-12T03:46:48;8.10;99.90
4697;DHT22;2362;50.780;0.292;2023-03-12T03:49:14;8.10;99.90
4697;DHT22;2362;50.780;0.292;2023-03-12T03:51:40;8.20;99.90
4697;DHT22;2362;50.780;0.292;2023-03-12T03:54:10;8.10;99.90
4697;DHT22;2362;50.780;0.292;2023-03-12T03:56:36;8.10;99.90
4697;DHT22;2362;50.780;0.292;2023-03-12T03:59:01;8.20;99.90
4697;DHT22;2362;50.780;0.292;2023-03-12T04:01:28;8.20;99.90
4697;DHT22;2362;50.780;0.292;2023-03-12T04:03:56;8.20;99.90
4697;DHT22;2362;50.780;0.292;2023-03-12T04:06:22;8.20;99.90
4697;DHT22;2362;50.780;0.292;2023-03-12T04:08:48;8.20;99.90
4697;DHT22;2362;50.780;0.292;2023-03-12T04:11:17;8.20;99.90
4697;DHT22;2362;50.780;0.292;2023-03-12T04:13:44;8.20;99.90
4697;DHT22;2362;50.780;0.292;2023-03-12T04:16:10;8.30;99.90
4697;DHT22;2362;50.780;0.292;2023-03-12T04:18:36;8.20;99.90
4697;DHT22;2362;50.780;0.292;2023-03-12T04:21:04;8.20;99.90
4697;DHT22;2362;50.780;0.292;2023-03-12T04:23:30;8.30;99.90
4697;DHT22;2362;50.780;0.292;2023-03-12T04:25:56;8.30;99.90
4697;DHT22;2362;50.780;0.292;2023-03-12T04:28:21;8.30;99.90
4697;DHT22;2362;50.780;0.292;2023-03-12T04:30:55;8.30;99.90
4697;DHT22;2362;50.780;0.292;2023-03-12T04:33:21;8.20;99.90
4697;DHT22;2362;50.780;0.292;2023-03-12T04:35:51;8.20;99.90
4697;DHT22;2362;50.780;0.292;2023-03-12T04:38:18;8.20;99.90
4697;DHT22;2362;50.780;0.292;2023-03-12T04:40:44;8.20;99.90
4697;DHT22;2362;50.780;0.292;2023-03-12T04:43:10;8.20;99.90
4697;DHT22;2362;50.780;0.292;2023-03-12T04:46:01;8.20;99.90
4697;DHT22;2362;50.780;0.292;2023-03-12T04:48:27;8.30;99.90
4697;DHT22;2362;50.780;0.292;2023-03-12T04:50:53;8.20;99.90
4697;DHT22;2362;50.780;0.292;2023-03-12T04:53:20;8.30;99.90
4697;DHT22;2362;50.780;0.292;2023-03-12T04:55:46;8.30;99.90
4697;DHT22;2362;50.780;0.292;2023-03-12T04:58:11;8.30;99.90
4697;DHT22;2362;50.780;0.292;2023-03-12T05:00:38;8.20;99.90
4697;DHT22;2362;50.780;0.292;2023-03-12T05:03:29;8.20;99.90
4697;DHT22;2362;50.780;0.292;2023-03-12T05:05:55;8.20;99.90
4697;DHT22;2362;50.780;0.292;2023-03-12T05:08:20;8.40;99.90
4697;DHT22;2362;50.780;0.292;2023-03-12T05:10:46;8.50;99.90
4697;DHT22;2362;50.780;0.292;2023-03-12T05:13:17;8.60;99.90
4697;DHT22;2362;50.780;0.292;2023-03-12T05:15:43;8.50;99.90
4697;DHT22;2362;50.780;0.292;2023-03-12T05:18:09;8.50;99.90
4697;DHT22;2362;50.780;0.292;2023-03-12T05:20:35;8.40;99.90
4697;DHT22;2362;50.780;0.292;2023-03-12T05:23:00;8.40;99.90
4697;DHT22;2362;50.780;0.292;2023-03-12T05:25:26;8.40;99.90
4697;DHT22;2362;50.780;0.292;2023-03-12T05:27:52;8.40;99.90
4697;DHT22;2362;50.780;0.292;2023-03-12T05:30:17;8.40;99.90
4697;DHT22;2362;50.780;0.292;2023-03-12T05:32:43;8.30;99.90
4697;DHT22;2362;50.780;0.292;2023-03-12T05:35:09;8.30;99.90
4697;DHT22;2362;50.780;0.292;2023-03-12T05:37:34;8.20;99.90
4697;DHT22;2362;50.780;0.292;2023-03-12T05:40:00;8.20;99.90
4697;DHT22;2362;50.780;0.292;2023-03-12T05:42:26;8.20;99.90
4697;DHT22;2362;50.780;0.292;2023-03-12T05:44:51;8.20;99.90
4697;DHT22;2362;50.780;0.292;2023-03-12T05:47:17;8.20;99.90
4697;DHT22;2362;50.780;0.292;2023-03-12T05:49:43;8.20;99.90
4697;DHT22;2362;50.780;0.292;2023-03-12T05:52:09;8.10;99.90
4697;DHT22;2362;50.780;0.292;2023-03-12T05:54:35;8.10;99.90
4697;DHT22;2362;50.780;0.292;2023-03-12T05:57:00;8.10;99.90
4697;DHT22;2362;50.780;0.292;2023-03-12T05:59:28;8.10;99.90
4697;DHT22;2362;50.780;0.292;2023-03-12T06:01:53;8.10;99.90
4697;DHT22;2362;50.780;0.292;2023-03-12T06:04:19;8.00;99.90
4697;DHT22;2362;50.780;0.292;2023-03-12T06:06:45;8.10;99.90
4697;DHT22;2362;50.780;0.292;2023-03-12T06:09:11;8.10;99.90
4697;DHT22;2362;50.780;0.292;2023-03-12T06:11:37;8.00;99.90
4697;DHT22;2362;50.780;0.292;2023-03-12T06:14:03;8.00;99.90
4697;DHT22;2362;50.780;0.292;2023-03-12T06:16:29;8.00;99.90
4697;DHT22;2362;50.780;0.292;2023-03-12T06:18:56;8.00;99.90
4697;DHT22;2362;50.780;0.292;2023-03-12T06:21:24;8.00;99.90
4697;DHT22;2362;50.780;0.292;2023-03-12T06:23:50;8.00;99.90
4697;DHT22;2362;50.780;0.292;2023-03-12T06:26:18;7.90;99.90
4697;DHT22;2362;50.780;0.292;2023-03-12T06:28:45;7.90;99.90
4697;DHT22;2362;50.780;0.292;2023-03-12T06:31:11;7.90;99.90
4697;DHT22;2362;50.780;0.292;2023-03-12T06:33:37;7.80;99.90
4697;DHT22;2362;50.780;0.292;2023-03-12T06:36:04;7.80;99.90
4697;DHT22;2362;50.780;0.292;2023-03-12T06:38:30;7.80;99.90
4697;DHT22;2362;50.780;0.292;2023-03-12T06:41:01;7.80;99.90
4697;DHT22;2362;50.780;0.292;2023-03-12T06:43:29;8.00;99.90
4697;DHT22;2362;50.780;0.292;2023-03-12T06:45:56;8.00;99.90
4697;DHT22;2362;50.780;0.292;2023-03-12T06:48:23;7.90;99.90
4697;DHT22;2362;50.780;0.292;2023-03-12T06:50:50;7.90;99.90
4697;DHT22;2362;50.780;0.292;2023-03-12T06:53:16;7.90;99.90
4697;DHT22;2362;50.780;0.292;2023-03-12T06:55:45;7.80;99.90
4697;DHT22;2362;50.780;0.292;2023-03-12T06:58:11;7.90;99.90
4697;DHT22;2362;50.780;0.292;2023-03-12T07:00:40;7.90;99.90
4697;DHT22;2362;50.780;0.292;2023-03-12T07:03:06;7.90;99.90
4697;DHT22;2362;50.780;0.292;2023-03-12T07:05:32;8.00;99.90
4697;DHT22;2362;50.780;0.292;2023-03-12T07:07:58;8.10;99.90
4697;DHT22;2362;50.780;0.292;2023-03-12T07:10:49;8.20;99.90
4697;DHT22;2362;50.780;0.292;2023-03-12T07:13:15;8.20;99.90
4697;DHT22;2362;50.780;0.292;2023-03-12T07:15:40;8.30;99.90
4697;DHT22;2362;50.780;0.292;2023-03-12T07:18:08;8.40;99.90
4697;DHT22;2362;50.780;0.292;2023-03-12T07:20:39;8.50;99.90
4697;DHT22;2362;50.780;0.292;2023-03-12T07:23:05;8.70;99.90
4697;DHT22;2362;50.780;0.292;2023-03-12T07:25:37;8.90;99.90
4697;DHT22;2362;50.780;0.292;2023-03-12T07:28:03;9.10;99.90
4697;DHT22;2362;50.780;0.292;2023-03-12T07:30:29;9.30;99.90
4697;DHT22;2362;50.780;0.292;2023-03-12T07:32:59;9.40;99.90
4697;DHT22;2362;50.780;0.292;2023-03-12T07:35:25;9.20;99.90
4697;DHT22;2362;50.780;0.292;2023-03-12T07:37:52;9.30;99.90
4697;DHT22;2362;50.780;0.292;2023-03-12T07:40:17;9.50;99.90
4697;DHT22;2362;50.780;0.292;2023-03-12T07:42:43;9.70;99.90
4697;DHT22;2362;50.780;0.292;2023-03-12T07:45:09;9.80;99.90
4697;DHT22;2362;50.780;0.292;2023-03-12T07:47:35;9.60;99.90
4697;DHT22;2362;50.780;0.292;2023-03-12T07:50:01;9.80;99.90
4697;DHT22;2362;50.780;0.292;2023-03-12T07:52:26;9.90;99.90
4697;DHT22;2362;50.780;0.292;2023-03-12T07:54:52;10.00;99.90
4697;DHT22;2362;50.780;0.292;2023-03-12T07:57:21;10.00;99.90
4697;DHT22;2362;50.780;0.292;2023-03-12T07:59:46;10.20;99.90
4697;DHT22;2362;50.780;0.292;2023-03-12T08:02:12;10.30;99.90
4697;DHT22;2362;50.780;0.292;2023-03-12T08:04:38;10.40;99.90
4697;DHT22;2362;50.780;0.292;2023-03-12T08:07:04;10.50;99.90
4697;DHT22;2362;50.780;0.292;2023-03-12T08:09:30;10.50;99.90
4697;DHT22;2362;50.780;0.292;2023-03-12T08:11:56;10.50;99.90
4697;DHT22;2362;50.780;0.292;2023-03-12T08:14:22;10.50;99.90
4697;DHT22;2362;50.780;0.292;2023-03-12T08:16:48;10.60;99.90
4697;DHT22;2362;50.780;0.292;2023-03-12T08:19:15;10.40;99.90
4697;DHT22;2362;50.780;0.292;2023-03-12T08:21:40;10.60;99.90
4697;DHT22;2362;50.780;0.292;2023-03-12T08:24:06;10.50;99.90
4697;DHT22;2362;50.780;0.292;2023-03-12T08:26:32;10.50;99.90
4697;DHT22;2362;50.780;0.292;2023-03-12T08:28:58;10.60;99.90
4697;DHT22;2362;50.780;0.292;2023-03-12T08:31:26;10.70;99.90
4697;DHT22;2362;50.780;0.292;2023-03-12T08:33:52;10.50;99.90
4697;DHT22;2362;50.780;0.292;2023-03-12T08:36:17;10.40;99.90
4697;DHT22;2362;50.780;0.292;2023-03-12T08:38:43;10.30;99.90
4697;DHT22;2362;50.780;0.292;2023-03-12T08:41:09;10.30;99.90
4697;DHT22;2362;50.780;0.292;2023-03-12T08:43:35;10.30;99.90
4697;DHT22;2362;50.780;0.292;2023-03-12T08:46:02;10.20;99.90
4697;DHT22;2362;50.780;0.292;2023-03-12T08:48:29;10.20;99.90
4697;DHT22;2362;50.780;0.292;2023-03-12T08:50:57;10.20;99.90
4697;DHT22;2362;50.780;0.292;2023-03-12T08:53:24;10.20;99.90
4697;DHT22;2362;50.780;0.292;2023-03-12T08:55:53;10.10;99.90
4697;DHT22;2362;50.780;0.292;2023-03-12T08:58:20;10.30;99.90
4697;DHT22;2362;50.780;0.292;2023-03-12T09:00:45;10.30;99.90
4697;DHT22;2362;50.780;0.292;2023-03-12T09:03:11;10.40;99.90
4697;DHT22;2362;50.780;0.292;2023-03-12T09:05:40;10.40;99.90
4697;DHT22;2362;50.780;0.292;2023-03-12T09:08:06;10.40;99.90
4697;DHT22;2362;50.780;0.292;2023-03-12T09:10:32;10.50;99.90
4697;DHT22;2362;50.780;0.292;2023-03-12T09:12:58;10.60;99.90
4697;DHT22;2362;50.780;0.292;2023-03-12T09:15:23;10.50;99.90
4697;DHT22;2362;50.780;0.292;2023-03-12T09:17:49;10.40;99.90
4697;DHT22;2362;50.780;0.292;2023-03-12T09:20:15;10.40;99.90
4697;DHT22;2362;50.780;0.292;2023-03-12T09:22:41;10.40;99.90
4697;DHT22;2362;50.780;0.292;2023-03-12T09:25:08;10.50;99.90
4697;DHT22;2362;50.780;0.292;2023-03-12T09:27:42;10.40;99.90
4697;DHT22;2362;50.780;0.292;2023-03-12T09:30:14;10.60;99.90
4697;DHT22;2362;50.780;0.292;2023-03-12T09:32:40;10.60;99.90
4697;DHT22;2362;50.780;0.292;2023-03-12T09:35:07;10.70;99.90
4697;DHT22;2362;50.780;0.292;2023-03-12T09:37:34;10.80;99.90
4697;DHT22;2362;50.780;0.292;2023-03-12T09:40:00;10.80;99.90
4697;DHT22;2362;50.780;0.292;2023-03-12T09:42:43;10.70;99.90
4697;DHT22;2362;50.780;0.292;2023-03-12T09:45:24;10.70;99.90
4697;DHT22;2362;50.780;0.292;2023-03-12T09:47:54;10.70;99.90
4697;DHT22;2362;50.780;0.292;2023-03-12T09:50:39;10.70;99.90
4697;DHT22;2362;50.780;0.292;2023-03-12T09:53:27;10.80;99.90
4697;DHT22;2362;50.780;0.292;2023-03-12T09:55:57;10.80;99.90
4697;DHT22;2362;50.780;0.292;2023-03-12T09:58:29;10.90;99.90
4697;DHT22;2362;50.780;0.292;2023-03-12T10:04:02;11.00;99.90
4697;DHT22;2362;50.780;0.292;2023-03-12T10:07:10;10.90;99.90
4697;DHT22;2362;50.780;0.292;2023-03-12T10:09:56;11.00;99.90
4697;DHT22;2362;50.780;0.292;2023-03-12T10:23:29;10.90;99.90
4697;DHT22;2362;50.780;0.292;2023-03-12T10:26:18;11.00;99.90
4697;DHT22;2362;50.780;0.292;2023-03-12T10:29:09;11.10;99.90
4697;DHT22;2362;50.780;0.292;2023-03-12T10:36:49;11.00;99.90
4697;DHT22;2362;50.780;0.292;2023-03-12T10:39:18;11.10;99.90
4697;DHT22;2362;50.780;0.292;2023-03-12T10:41:46;11.10;99.90
4697;DHT22;2362;50.780;0.292;2023-03-12T10:44:19;11.10;99.90
4697;DHT22;2362;50.780;0.292;2023-03-12T10:46:59;11.30;99.90
4697;DHT22;2362;50.780;0.292;2023-03-12T10:49:34;11.40;99.90
4697;DHT22;2362;50.780;0.292;2023-03-12T10:52:13;11.40;99.90
4697;DHT22;2362;50.780;0.292;2023-03-12T10:54:41;11.50;99.90
4697;DHT22;2362;50.780;0.292;2023-03-12T10:57:10;11.40;99.90
4697;DHT22;2362;50.780;0.292;2023-03-12T10:59:38;11.40;99.90
4697;DHT22;2362;50.780;0.292;2023-03-12T11:02:30;11.60;99.90
4697;DHT22;2362;50.780;0.292;2023-03-12T11:04:57;11.70;99.90
4697;DHT22;2362;50.780;0.292;2023-03-12T11:07:27;11.70;99.90
4697;DHT22;2362;50.780;0.292;2023-03-12T11:12:32;11.40;99.90
4697;DHT22;2362;50.780;0.292;2023-03-12T11:21:12;11.90;99.90
4697;DHT22;2362;50.780;0.292;2023-03-12T11:23:42;11.90;99.90
4697;DHT22;2362;50.780;0.292;2023-03-12T11:26:20;11.90;99.90
4697;DHT22;2362;50.780;0.292;2023-03-12T11:29:00;11.80;99.90
4697;DHT22;2362;50.780;0.292;2023-03-12T11:31:36;11.90;99.90
4697;DHT22;2362;50.780;0.292;2023-03-12T11:34:06;11.70;99.90
4697;DHT22;2362;50.780;0.292;2023-03-12T11:36:40;11.80;99.90
4697;DHT22;2362;50.780;0.292;2023-03-12T11:39:29;11.90;99.90
4697;DHT22;2362;50.780;0.292;2023-03-12T11:42:15;11.90;99.90
4697;DHT22;2362;50.780;0.292;2023-03-12T11:45:08;12.10;99.90
4697;DHT22;2362;50.780;0.292;2023-03-12T11:56:08;11.60;99.90
4697;DHT22;2362;50.780;0.292;2023-03-12T11:58:53;11.60;99.90
4697;DHT22;2362;50.780;0.292;2023-03-12T12:07:37;11.80;99.90
4697;DHT22;2362;50.780;0.292;2023-03-12T12:10:36;11.60;99.90
4697;DHT22;2362;50.780;0.292;2023-03-12T12:18:48;11.60;99.90
4697;DHT22;2362;50.780;0.292;2023-03-12T12:32:19;11.90;99.90
4697;DHT22;2362;50.780;0.292;2023-03-12T12:40:28;11.80;99.90
4697;DHT22;2362;50.780;0.292;2023-03-12T12:45:53;11.70;99.90
4697;DHT22;2362;50.780;0.292;2023-03-12T12:48:24;11.50;99.90
4697;DHT22;2362;50.780;0.292;2023-03-12T12:50:51;11.10;99.90
4697;DHT22;2362;50.780;0.292;2023-03-12T12:53:25;10.90;99.90
4697;DHT22;2362;50.780;0.292;2023-03-12T12:56:07;10.80;99.90
4697;DHT22;2362;50.780;0.292;2023-03-12T13:01:15;10.90;99.90
4697;DHT22;2362;50.780;0.292;2023-03-12T13:03:42;11.00;99.90
4697;DHT22;2362;50.780;0.292;2023-03-12T13:06:08;11.10;99.90
4697;DHT22;2362;50.780;0.292;2023-03-12T13:13:42;11.10;99.90
4697;DHT22;2362;50.780;0.292;2023-03-12T13:24:43;11.10;99.90
4697;DHT22;2362;50.780;0.292;2023-03-12T13:27:29;10.90;99.90
4697;DHT22;2362;50.780;0.292;2023-03-12T13:29:55;10.80;99.90
4697;DHT22;2362;50.780;0.292;2023-03-12T13:35:28;10.90;99.90
4697;DHT22;2362;50.780;0.292;2023-03-12T13:45:39;10.80;99.90
4697;DHT22;2362;50.780;0.292;2023-03-12T13:48:14;10.80;99.90
4697;DHT22;2362;50.780;0.292;2023-03-12T13:50:49;10.80;99.90
4697;DHT22;2362;50.780;0.292;2023-03-12T13:53:22;10.90;99.90
4697;DHT22;2362;50.780;0.292;2023-03-12T13:56:03;11.00;99.90
4697;DHT22;2362;50.780;0.292;2023-03-12T13:58:30;11.10;99.90
4697;DHT22;2362;50.780;0.292;2023-03-12T14:00:59;11.20;99.90
4697;DHT22;2362;50.780;0.292;2023-03-12T14:03:35;11.30;99.90
4697;DHT22;2362;50.780;0.292;2023-03-12T14:17:27;11.40;99.90
4697;DHT22;2362;50.780;0.292;2023-03-12T14:20:00;11.40;99.90
4697;DHT22;2362;50.780;0.292;2023-03-12T14:22:33;11.30;99.90
4697;DHT22;2362;50.780;0.292;2023-03-12T14:25:16;11.20;99.90
4697;DHT22;2362;50.780;0.292;2023-03-12T14:28:21;11.20;99.90
4697;DHT22;2362;50.780;0.292;2023-03-12T14:30:56;11.10;99.90
4697;DHT22;2362;50.780;0.292;2023-03-12T14:33:23;11.10;99.90
4697;DHT22;2362;50.780;0.292;2023-03-12T14:36:14;11.00;99.90
4697;DHT22;2362;50.780;0.292;2023-03-12T14:38:42;11.00;99.90
4697;DHT22;2362;50.780;0.292;2023-03-12T14:41:12;11.00;99.90
4697;DHT22;2362;50.780;0.292;2023-03-12T14:43:41;11.00;99.90
4697;DHT22;2362;50.780;0.292;2023-03-12T14:46:22;11.10;99.90
4697;DHT22;2362;50.780;0.292;2023-03-12T14:48:52;11.00;99.90
4697;DHT22;2362;50.780;0.292;2023-03-12T14:51:27;11.00;99.90
4697;DHT22;2362;50.780;0.292;2023-03-12T14:53:53;11.00;99.90
4697;DHT22;2362;50.780;0.292;2023-03-12T14:56:30;10.90;99.90
4697;DHT22;2362;50.780;0.292;2023-03-12T14:59:03;10.90;99.90
4697;DHT22;2362;50.780;0.292;2023-03-12T15:01:32;10.90;99.90
4697;DHT22;2362;50.780;0.292;2023-03-12T15:03:59;10.90;99.90
4697;DHT22;2362;50.780;0.292;2023-03-12T15:06:39;10.80;99.90
4697;DHT22;2362;50.780;0.292;2023-03-12T15:09:21;10.80;99.90
4697;DHT22;2362;50.780;0.292;2023-03-12T15:12:17;10.80;99.90
4697;DHT22;2362;50.780;0.292;2023-03-12T15:14:43;10.80;99.90
4697;DHT22;2362;50.780;0.292;2023-03-12T15:17:17;10.80;99.90
4697;DHT22;2362;50.780;0.292;2023-03-12T15:19:44;10.80;99.90
4697;DHT22;2362;50.780;0.292;2023-03-12T15:22:20;10.90;99.90
4697;DHT22;2362;50.780;0.292;2023-03-12T15:24:46;10.80;99.90
4697;DHT22;2362;50.780;0.292;2023-03-12T15:29:53;11.00;99.90
4697;DHT22;2362;50.780;0.292;2023-03-12T15:32:21;11.10;99.90
4697;DHT22;2362;50.780;0.292;2023-03-12T15:34:53;11.10;99.90
4697;DHT22;2362;50.780;0.292;2023-03-12T15:37:29;11.00;99.90
4697;DHT22;2362;50.780;0.292;2023-03-12T15:42:49;11.00;99.90
4697;DHT22;2362;50.780;0.292;2023-03-12T15:45:20;11.00;99.90
4697;DHT22;2362;50.780;0.292;2023-03-12T15:47:48;10.90;99.90
4697;DHT22;2362;50.780;0.292;2023-03-12T15:50:36;10.90;99.90
4697;DHT22;2362;50.780;0.292;2023-03-12T15:53:22;10.90;99.90
4697;DHT22;2362;50.780;0.292;2023-03-12T15:58:36;10.90;99.90
4697;DHT22;2362;50.780;0.292;2023-03-12T16:01:20;10.90;99.90
4697;DHT22;2362;50.780;0.292;2023-03-12T16:03:52;10.90;99.90
4697;DHT22;2362;50.780;0.292;2023-03-12T16:06:20;10.80;99.90
4697;DHT22;2362;50.780;0.292;2023-03-12T16:08:59;10.70;99.90
4697;DHT22;2362;50.780;0.292;2023-03-12T16:11:28;10.80;99.90
4697;DHT22;2362;50.780;0.292;2023-03-12T16:14:26;10.70;99.90
4697;DHT22;2362;50.780;0.292;2023-03-12T16:16:53;10.70;99.90
4697;DHT22;2362;50.780;0.292;2023-03-12T16:19:21;10.80;99.90
4697;DHT22;2362;50.780;0.292;2023-03-12T16:21:47;10.80;99.90
4697;DHT22;2362;50.780;0.292;2023-03-12T16:24:13;10.80;99.90
4697;DHT22;2362;50.780;0.292;2023-03-12T16:27:01;10.80;99.90
4697;DHT22;2362;50.780;0.292;2023-03-12T16:29:35;10.80;99.90
4697;DHT22;2362;50.780;0.292;2023-03-12T16:32:01;10.70;99.90
4697;DHT22;2362;50.780;0.292;2023-03-12T16:34:34;10.70;99.90
4697;DHT22;2362;50.780;0.292;2023-03-12T16:36:59;10.70;99.90
4697;DHT22;2362;50.780;0.292;2023-03-12T16:39:26;10.70;99.90
4697;DHT22;2362;50.780;0.292;2023-03-12T16:41:54;10.70;99.90
4697;DHT22;2362;50.780;0.292;2023-03-12T16:44:21;10.70;99.90
4697;DHT22;2362;50.780;0.292;2023-03-12T16:46:46;10.70;99.90
4697;DHT22;2362;50.780;0.292;2023-03-12T16:49:15;10.70;99.90
4697;DHT22;2362;50.780;0.292;2023-03-12T16:51:47;10.70;99.90
4697;DHT22;2362;50.780;0.292;2023-03-12T16:54:13;10.80;99.90
4697;DHT22;2362;50.780;0.292;2023-03-12T16:56:45;10.80;99.90
4697;DHT22;2362;50.780;0.292;2023-03-12T16:59:24;10.80;99.90
4697;DHT22;2362;50.780;0.292;2023-03-12T17:01:51;10.90;99.90
4697;DHT22;2362;50.780;0.292;2023-03-12T17:04:17;10.90;99.90
4697;DHT22;2362;50.780;0.292;2023-03-12T17:06:42;11.00;99.90
4697;DHT22;2362;50.780;0.292;2023-03-12T17:09:08;11.10;99.90
4697;DHT22;2362;50.780;0.292;2023-03-12T17:11:35;11.20;99.90
4697;DHT22;2362;50.780;0.292;2023-03-12T17:14:16;11.10;99.90
4697;DHT22;2362;50.780;0.292;2023-03-12T17:16:43;11.10;99.90
4697;DHT22;2362;50.780;0.292;2023-03-12T17:19:09;11.10;99.90
4697;DHT22;2362;50.780;0.292;2023-03-12T17:21:35;11.10;99.90
4697;DHT22;2362;50.780;0.292;2023-03-12T17:24:01;11.10;99.90
4697;DHT22;2362;50.780;0.292;2023-03-12T17:26:28;11.10;99.90
4697;DHT22;2362;50.780;0.292;2023-03-12T17:28:53;11.00;99.90
4697;DHT22;2362;50.780;0.292;2023-03-12T17:31:19;11.00;99.90
4697;DHT22;2362;50.780;0.292;2023-03-12T17:33:45;11.00;99.90
4697;DHT22;2362;50.780;0.292;2023-03-12T17:36:11;11.00;99.90
4697;DHT22;2362;50.780;0.292;2023-03-12T17:38:37;10.90;99.90
4697;DHT22;2362;50.780;0.292;2023-03-12T17:41:03;10.80;99.90
4697;DHT22;2362;50.780;0.292;2023-03-12T17:43:30;10.70;99.90
4697;DHT22;2362;50.780;0.292;2023-03-12T17:46:06;10.60;99.90
4697;DHT22;2362;50.780;0.292;2023-03-12T17:48:32;10.50;99.90
4697;DHT22;2362;50.780;0.292;2023-03-12T17:50:57;10.50;99.90
4697;DHT22;2362;50.780;0.292;2023-03-12T17:53:23;10.50;99.90
4697;DHT22;2362;50.780;0.292;2023-03-12T17:55:49;10.40;99.90
4697;DHT22;2362;50.780;0.292;2023-03-12T17:58:15;10.40;99.90
4697;DHT22;2362;50.780;0.292;2023-03-12T18:00:40;10.40;99.90
4697;DHT22;2362;50.780;0.292;2023-03-12T18:03:06;10.40;99.90
4697;DHT22;2362;50.780;0.292;2023-03-12T18:05:32;10.30;99.90
4697;DHT22;2362;50.780;0.292;2023-03-12T18:07:58;10.30;99.90
4697;DHT22;2362;50.780;0.292;2023-03-12T18:10:23;10.30;99.90
4697;DHT22;2362;50.780;0.292;2023-03-12T18:12:49;10.20;99.90
4697;DHT22;2362;50.780;0.292;2023-03-12T18:15:15;10.20;99.90
4697;DHT22;2362;50.780;0.292;2023-03-12T18:17:42;10.10;99.90
4697;DHT22;2362;50.780;0.292;2023-03-12T18:20:12;10.10;99.90
4697;DHT22;2362;50.780;0.292;2023-03-12T18:22:40;10.10;99.90